sensor_id;sensor_type;location;lat;lon;timestamp;temperature;humidity
75321;DHT22;68337;52.196;5.660;2023-07-20T00:01:59;16.10;99.90
75321;DHT22;68337;52.196;5.660;2023-07-20T00:04:24;16.10;99.90
75321;DHT22;68337;52.196;5.660;2023-07-20T00:06:50;16.10;99.90
75321;DHT22;68337;52.196;5.660;2023-07-20T00:09:16;16.10;99.90
75321;DHT22;68337;52.196;5.660;2023-07-20T00:11:49;16.00;99.90
75321;DHT22;68337;52.196;5.660;2023-07-20T00:14:16;16.00;99.90
75321;DHT22;68337;52.196;5.660;2023-07-20T00:16:42;16.00;99.90
75321;DHT22;68337;52.196;5.660;2023-07-20T00:19:08;16.00;99.90
75321;DHT22;68337;52.196;5.660;2023-07-20T00:21:36;16.00;99.90
75321;DHT22;68337;52.196;5.660;2023-07-20T00:24:03;16.00;99.90
75321;DHT22;68337;52.196;5.660;2023-07-20T00:26:29;15.90;99.90
75321;DHT22;68337;52.196;5.660;2023-07-20T00:28:54;15.90;99.90
75321;DHT22;68337;52.196;5.660;2023-07-20T00:31:20;15.90;99.90
75321;DHT22;68337;52.196;5.660;2023-07-20T00:33:46;15.80;99.90
75321;DHT22;68337;52.196;5.660;2023-07-20T00:36:12;15.80;99.90
75321;DHT22;68337;52.196;5.660;2023-07-20T00:38:39;15.70;99.90
75321;DHT22;68337;52.196;5.660;2023-07-20T00:41:06;15.70;99.90
75321;DHT22;68337;52.196;5.660;2023-07-20T00:43:32;15.60;99.90
75321;DHT22;68337;52.196;5.660;2023-07-20T00:45:57;15.60;99.90
75321;DHT22;68337;52.196;5.660;2023-07-20T00:48:23;15.60;99.90
75321;DHT22;68337;52.196;5.660;2023-07-20T00:50:50;15.40;99.90
75321;DHT22;68337;52.196;5.660;2023-07-20T00:53:16;15.50;99.90
75321;DHT22;68337;52.196;5.660;2023-07-20T00:55:42;15.40;99.90
75321;DHT22;68337;52.196;5.660;2023-07-20T00:58:08;15.40;99.90
75321;DHT22;68337;52.196;5.660;2023-07-20T01:00:34;15.30;99.90
75321;DHT22;68337;52.196;5.660;2023-07-20T01:03:00;15.30;99.90
75321;DHT22;68337;52.196;5.660;2023-07-20T01:08:32;15.20;99.90
75321;DHT22;68337;52.196;5.660;2023-07-20T01:11:13;15.10;99.90
75321;DHT22;68337;52.196;5.660;2023-07-20T01:13:41;15.10;99.90
75321;DHT22;68337;52.196;5.660;2023-07-20T01:16:08;15.00;99.90
75321;DHT22;68337;52.196;5.660;2023-07-20T01:18:34;15.00;99.90
75321;DHT22;68337;52.196;5.660;2023-07-20T01:21:03;15.00;99.90
75321;DHT22;68337;52.196;5.660;2023-07-20T01:32:02;14.80;99.90
75321;DHT22;68337;52.196;5.660;2023-07-20T01:34:29;14.80;99.90
75321;DHT22;68337;52.196;5.660;2023-07-20T01:36:56;14.80;99.90
75321;DHT22;68337;52.196;5.660;2023-07-20T01:39:23;14.80;99.90
75321;DHT22;68337;52.196;5.660;2023-07-20T01:41:49;14.70;99.90
75321;DHT22;68337;52.196;5.660;2023-07-20T01:44:15;14.70;99.90
75321;DHT22;68337;52.196;5.660;2023-07-20T01:46:41;14.70;99.90
75321;DHT22;68337;52.196;5.660;2023-07-20T01:49:07;14.70;99.90
75321;DHT22;68337;52.196;5.660;2023-07-20T01:51:33;14.60;99.90
75321;DHT22;68337;52.196;5.660;2023-07-20T01:53:59;14.60;99.90
75321;DHT22;68337;52.196;5.660;2023-07-20T01:56:25;14.50;99.90
75321;DHT22;68337;52.196;5.660;2023-07-20T01:58:53;14.40;99.90
75321;DHT22;68337;52.196;5.660;2023-07-20T02:01:19;14.40;99.90
75321;DHT22;68337;52.196;5.660;2023-07-20T02:03:45;14.30;99.90
75321;DHT22;68337;52.196;5.660;2023-07-20T02:06:11;14.30;99.90
75321;DHT22;68337;52.196;5.660;2023-07-20T02:08:37;14.20;99.90
75321;DHT22;68337;52.196;5.660;2023-07-20T02:11:03;14.10;99.90
75321;DHT22;68337;52.196;5.660;2023-07-20T02:13:30;14.10;99.90
75321;DHT22;68337;52.196;5.660;2023-07-20T02:15:56;14.00;99.90
75321;DHT22;68337;52.196;5.660;2023-07-20T02:18:21;14.00;99.90
75321;DHT22;68337;52.196;5.660;2023-07-20T02:20:53;13.90;99.90
75321;DHT22;68337;52.196;5.660;2023-07-20T02:23:19;13.90;99.90
75321;DHT22;68337;52.196;5.660;2023-07-20T02:25:45;13.90;99.90
75321;DHT22;68337;52.196;5.660;2023-07-20T02:28:13;13.80;99.90
75321;DHT22;68337;52.196;5.660;2023-07-20T02:30:39;13.80;99.90
75321;DHT22;68337;52.196;5.660;2023-07-20T02:33:05;13.80;99.90
75321;DHT22;68337;52.196;5.660;2023-07-20T02:35:32;13.70;99.90
75321;DHT22;68337;52.196;5.660;2023-07-20T02:37:58;13.70;99.90
75321;DHT22;68337;52.196;5.660;2023-07-20T02:40:23;13.70;99.90
75321;DHT22;68337;52.196;5.660;2023-07-20T02:42:49;13.70;99.90
75321;DHT22;68337;52.196;5.660;2023-07-20T02:45:15;13.70;99.90
75321;DHT22;68337;52.196;5.660;2023-07-20T02:47:41;13.70;99.90
75321;DHT22;68337;52.196;5.660;2023-07-20T02:50:08;13.70;99.90
75321;DHT22;68337;52.196;5.660;2023-07-20T02:52:34;13.70;99.90
75321;DHT22;68337;52.196;5.660;2023-07-20T02:54:59;13.60;99.90
75321;DHT22;68337;52.196;5.660;2023-07-20T02:57:25;13.60;99.90
75321;DHT22;68337;52.196;5.660;2023-07-20T02:59:51;13.60;99.90
75321;DHT22;68337;52.196;5.660;2023-07-20T03:02:16;13.60;99.90
75321;DHT22;68337;52.196;5.660;2023-07-20T03:04:42;13.60;99.90
75321;DHT22;68337;52.196;5.660;2023-07-20T03:07:08;13.60;99.90
75321;DHT22;68337;52.196;5.660;2023-07-20T03:09:34;13.70;99.90
75321;DHT22;68337;52.196;5.660;2023-07-20T03:11:59;13.70;99.90
75321;DHT22;68337;52.196;5.660;2023-07-20T03:14:26;13.70;99.90
75321;DHT22;68337;52.196;5.660;2023-07-20T03:16:52;13.60;99.90
75321;DHT22;68337;52.196;5.660;2023-07-20T03:19:18;13.50;99.90
75321;DHT22;68337;52.196;5.660;2023-07-20T03:21:43;13.50;99.90
75321;DHT22;68337;52.196;5.660;2023-07-20T03:24:09;13.50;99.90
75321;DHT22;68337;52.196;5.660;2023-07-20T03:26:35;13.50;99.90
75321;DHT22;68337;52.196;5.660;2023-07-20T03:29:02;13.50;99.90
75321;DHT22;68337;52.196;5.660;2023-07-20T03:31:28;13.50;99.90
75321;DHT22;68337;52.196;5.660;2023-07-20T03:33:54;13.40;99.90
75321;DHT22;68337;52.196;5.660;2023-07-20T03:36:19;13.40;99.90
75321;DHT22;68337;52.196;5.660;2023-07-20T03:38:46;13.50;99.90
75321;DHT22;68337;52.196;5.660;2023-07-20T03:41:11;13.50;99.90
75321;DHT22;68337;52.196;5.660;2023-07-20T03:43:37;13.50;99.90
75321;DHT22;68337;52.196;5.660;2023-07-20T03:46:03;13.50;99.90
75321;DHT22;68337;52.196;5.660;2023-07-20T03:48:32;13.50;99.90
75321;DHT22;68337;52.196;5.660;2023-07-20T03:50:58;13.40;99.90
75321;DHT22;68337;52.196;5.660;2023-07-20T03:53:26;13.40;99.90
75321;DHT22;68337;52.196;5.660;2023-07-20T03:55:52;13.40;99.90
75321;DHT22;68337;52.196;5.660;2023-07-20T03:58:19;13.40;99.90
75321;DHT22;68337;52.196;5.660;2023-07-20T04:00:46;13.40;99.90
75321;DHT22;68337;52.196;5.660;2023-07-20T04:03:13;13.40;99.90
75321;DHT22;68337;52.196;5.660;2023-07-20T04:05:38;13.30;99.90
75321;DHT22;68337;52.196;5.660;2023-07-20T04:08:04;13.20;99.90
75321;DHT22;68337;52.196;5.660;2023-07-20T04:10:30;13.20;99.90
75321;DHT22;68337;52.196;5.660;2023-07-20T04:12:56;13.20;99.90
75321;DHT22;68337;52.196;5.660;2023-07-20T04:15:21;13.10;99.90
75321;DHT22;68337;52.196;5.660;2023-07-20T04:17:47;13.20;99.90
75321;DHT22;68337;52.196;5.660;2023-07-20T04:20:13;13.10;99.90
75321;DHT22;68337;52.196;5.660;2023-07-20T04:22:39;13.00;99.90
75321;DHT22;68337;52.196;5.660;2023-07-20T04:25:05;13.00;99.90
75321;DHT22;68337;52.196;5.660;2023-07-20T04:27:31;13.00;99.90
75321;DHT22;68337;52.196;5.660;2023-07-20T04:29:58;13.00;99.90
75321;DHT22;68337;52.196;5.660;2023-07-20T04:32:27;13.00;99.90
75321;DHT22;68337;52.196;5.660;2023-07-20T04:34:53;13.00;99.90
75321;DHT22;68337;52.196;5.660;2023-07-20T04:37:19;13.00;99.90
75321;DHT22;68337;52.196;5.660;2023-07-20T04:39:44;13.00;99.90
75321;DHT22;68337;52.196;5.660;2023-07-20T04:42:10;13.00;99.90
75321;DHT22;68337;52.196;5.660;2023-07-20T04:44:36;13.00;99.90
75321;DHT22;68337;52.196;5.660;2023-07-20T04:47:01;13.00;99.90
75321;DHT22;68337;52.196;5.660;2023-07-20T04:49:28;13.00;99.90
75321;DHT22;68337;52.196;5.660;2023-07-20T04:51:54;13.10;99.90
75321;DHT22;68337;52.196;5.660;2023-07-20T04:54:20;13.10;99.90
75321;DHT22;68337;52.196;5.660;2023-07-20T04:56:45;13.10;99.90
75321;DHT22;68337;52.196;5.660;2023-07-20T04:59:11;13.20;99.90
75321;DHT22;68337;52.196;5.660;2023-07-20T05:01:37;13.20;99.90
75321;DHT22;68337;52.196;5.660;2023-07-20T05:04:03;13.30;99.90
75321;DHT22;68337;52.196;5.660;2023-07-20T05:06:29;13.40;99.90
75321;DHT22;68337;52.196;5.660;2023-07-20T05:08:55;13.60;99.90
75321;DHT22;68337;52.196;5.660;2023-07-20T05:11:21;13.80;99.90
75321;DHT22;68337;52.196;5.660;2023-07-20T05:13:46;14.10;99.90
75321;DHT22;68337;52.196;5.660;2023-07-20T05:16:12;14.40;99.90
75321;DHT22;68337;52.196;5.660;2023-07-20T05:18:38;14.70;99.90
75321;DHT22;68337;52.196;5.660;2023-07-20T05:21:05;14.90;99.90
75321;DHT22;68337;52.196;5.660;2023-07-20T05:23:31;15.10;99.90
75321;DHT22;68337;52.196;5.660;2023-07-20T05:25:58;15.20;99.90
75321;DHT22;68337;52.196;5.660;2023-07-20T05:28:25;15.30;99.90
75321;DHT22;68337;52.196;5.660;2023-07-20T05:30:51;15.50;99.90
75321;DHT22;68337;52.196;5.660;2023-07-20T05:33:18;15.70;99.90
75321;DHT22;68337;52.196;5.660;2023-07-20T05:35:44;15.80;99.90
75321;DHT22;68337;52.196;5.660;2023-07-20T05:38:10;15.80;99.90
75321;DHT22;68337;52.196;5.660;2023-07-20T05:40:38;15.90;99.90
75321;DHT22;68337;52.196;5.660;2023-07-20T05:43:04;16.10;99.90
75321;DHT22;68337;52.196;5.660;2023-07-20T05:45:30;16.20;99.90
75321;DHT22;68337;52.196;5.660;2023-07-20T05:47:55;16.30;99.90
75321;DHT22;68337;52.196;5.660;2023-07-20T05:50:21;16.40;99.90
75321;DHT22;68337;52.196;5.660;2023-07-20T05:52:47;16.50;99.90
75321;DHT22;68337;52.196;5.660;2023-07-20T05:55:13;16.50;99.90
75321;DHT22;68337;52.196;5.660;2023-07-20T05:57:39;16.60;99.90
75321;DHT22;68337;52.196;5.660;2023-07-20T06:00:08;16.60;99.90
75321;DHT22;68337;52.196;5.660;2023-07-20T06:02:34;16.70;99.90
75321;DHT22;68337;52.196;5.660;2023-07-20T06:05:00;16.80;99.90
75321;DHT22;68337;52.196;5.660;2023-07-20T06:07:26;16.80;99.90
75321;DHT22;68337;52.196;5.660;2023-07-20T06:09:52;16.90;99.90
75321;DHT22;68337;52.196;5.660;2023-07-20T06:12:18;17.00;99.90
75321;DHT22;68337;52.196;5.660;2023-07-20T06:14:43;17.20;99.90
75321;DHT22;68337;52.196;5.660;2023-07-20T06:17:09;17.30;99.90
75321;DHT22;68337;52.196;5.660;2023-07-20T06:19:35;17.30;99.90
75321;DHT22;68337;52.196;5.660;2023-07-20T06:22:01;17.30;99.90
75321;DHT22;68337;52.196;5.660;2023-07-20T06:24:27;17.30;99.90
75321;DHT22;68337;52.196;5.660;2023-07-20T06:26:53;17.30;99.90
75321;DHT22;68337;52.196;5.660;2023-07-20T06:29:18;17.70;99.90
75321;DHT22;68337;52.196;5.660;2023-07-20T06:31:44;17.80;99.90
75321;DHT22;68337;52.196;5.660;2023-07-20T06:34:10;18.10;99.90
75321;DHT22;68337;52.196;5.660;2023-07-20T06:36:36;18.30;99.90
75321;DHT22;68337;52.196;5.660;2023-07-20T06:39:02;18.50;99.90
75321;DHT22;68337;52.196;5.660;2023-07-20T06:41:28;18.80;99.90
75321;DHT22;68337;52.196;5.660;2023-07-20T06:43:53;19.00;99.90
75321;DHT22;68337;52.196;5.660;2023-07-20T06:46:25;19.30;99.90
75321;DHT22;68337;52.196;5.660;2023-07-20T06:48:51;19.40;99.90
75321;DHT22;68337;52.196;5.660;2023-07-20T06:51:17;19.40;99.90
75321;DHT22;68337;52.196;5.660;2023-07-20T06:53:43;19.10;99.90
75321;DHT22;68337;52.196;5.660;2023-07-20T06:56:09;19.10;99.90
75321;DHT22;68337;52.196;5.660;2023-07-20T06:58:37;19.20;99.90
75321;DHT22;68337;52.196;5.660;2023-07-20T07:01:08;19.50;99.90
75321;DHT22;68337;52.196;5.660;2023-07-20T07:03:34;19.40;99.90
75321;DHT22;68337;52.196;5.660;2023-07-20T07:06:00;19.60;99.90
75321;DHT22;68337;52.196;5.660;2023-07-20T07:08:26;19.90;99.90
75321;DHT22;68337;52.196;5.660;2023-07-20T07:10:52;20.00;99.90
75321;DHT22;68337;52.196;5.660;2023-07-20T07:13:19;19.70;99.90
75321;DHT22;68337;52.196;5.660;2023-07-20T07:15:45;19.40;99.90
75321;DHT22;68337;52.196;5.660;2023-07-20T07:18:11;19.20;99.90
75321;DHT22;68337;52.196;5.660;2023-07-20T07:20:37;19.10;99.90
75321;DHT22;68337;52.196;5.660;2023-07-20T07:23:03;19.50;99.90
75321;DHT22;68337;52.196;5.660;2023-07-20T07:25:29;20.20;99.90
75321;DHT22;68337;52.196;5.660;2023-07-20T07:27:56;20.80;99.90
75321;DHT22;68337;52.196;5.660;2023-07-20T07:30:22;21.10;99.90
75321;DHT22;68337;52.196;5.660;2023-07-20T07:32:48;21.10;99.90
75321;DHT22;68337;52.196;5.660;2023-07-20T07:35:14;20.60;99.90
75321;DHT22;68337;52.196;5.660;2023-07-20T07:37:40;20.30;99.90
75321;DHT22;68337;52.196;5.660;2023-07-20T07:40:07;20.20;99.90
75321;DHT22;68337;52.196;5.660;2023-07-20T07:42:33;20.40;99.90
75321;DHT22;68337;52.196;5.660;2023-07-20T07:44:59;20.40;99.90
75321;DHT22;68337;52.196;5.660;2023-07-20T07:47:25;20.50;99.90
75321;DHT22;68337;52.196;5.660;2023-07-20T07:49:51;20.80;99.90
75321;DHT22;68337;52.196;5.660;2023-07-20T07:52:17;21.30;99.90
75321;DHT22;68337;52.196;5.660;2023-07-20T07:54:42;21.10;99.90
75321;DHT22;68337;52.196;5.660;2023-07-20T07:57:08;20.60;99.90
75321;DHT22;68337;52.196;5.660;2023-07-20T07:59:34;20.30;99.90
75321;DHT22;68337;52.196;5.660;2023-07-20T08:02:04;20.60;99.90
75321;DHT22;68337;52.196;5.660;2023-07-20T08:04:30;21.00;99.90
75321;DHT22;68337;52.196;5.660;2023-07-20T08:06:56;21.50;99.90
75321;DHT22;68337;52.196;5.660;2023-07-20T08:09:22;22.00;99.90
75321;DHT22;68337;52.196;5.660;2023-07-20T08:11:48;22.00;99.90
75321;DHT22;68337;52.196;5.660;2023-07-20T08:14:15;22.20;99.90
75321;DHT22;68337;52.196;5.660;2023-07-20T08:16:41;22.00;99.90
75321;DHT22;68337;52.196;5.660;2023-07-20T08:19:07;21.80;99.90
75321;DHT22;68337;52.196;5.660;2023-07-20T08:21:32;22.20;99.90
75321;DHT22;68337;52.196;5.660;2023-07-20T08:23:58;22.80;99.90
75321;DHT22;68337;52.196;5.660;2023-07-20T08:26:24;23.00;99.90
75321;DHT22;68337;52.196;5.660;2023-07-20T08:28:49;22.80;99.90
75321;DHT22;68337;52.196;5.660;2023-07-20T08:31:15;22.60;99.90
75321;DHT22;68337;52.196;5.660;2023-07-20T08:33:41;22.70;99.90
75321;DHT22;68337;52.196;5.660;2023-07-20T08:36:07;23.10;99.90
75321;DHT22;68337;52.196;5.660;2023-07-20T08:38:33;23.50;99.90
75321;DHT22;68337;52.196;5.660;2023-07-20T08:40:59;23.50;99.90
75321;DHT22;68337;52.196;5.660;2023-07-20T08:43:27;23.40;99.90
75321;DHT22;68337;52.196;5.660;2023-07-20T08:45:54;23.80;99.90
75321;DHT22;68337;52.196;5.660;2023-07-20T08:48:23;24.40;99.90
75321;DHT22;68337;52.196;5.660;2023-07-20T08:50:51;24.80;99.90
75321;DHT22;68337;52.196;5.660;2023-07-20T08:53:18;24.90;99.90
75321;DHT22;68337;52.196;5.660;2023-07-20T08:55:45;25.00;99.90
75321;DHT22;68337;52.196;5.660;2023-07-20T08:58:14;25.00;99.90
75321;DHT22;68337;52.196;5.660;2023-07-20T09:00:41;25.50;99.90
75321;DHT22;68337;52.196;5.660;2023-07-20T09:03:07;25.70;99.90
75321;DHT22;68337;52.196;5.660;2023-07-20T09:05:35;24.50;99.90
75321;DHT22;68337;52.196;5.660;2023-07-20T09:08:01;24.50;99.90
75321;DHT22;68337;52.196;5.660;2023-07-20T09:10:29;24.40;99.90
75321;DHT22;68337;52.196;5.660;2023-07-20T09:12:55;23.70;99.90
75321;DHT22;68337;52.196;5.660;2023-07-20T09:15:22;23.10;99.90
75321;DHT22;68337;52.196;5.660;2023-07-20T09:17:49;23.00;99.90
75321;DHT22;68337;52.196;5.660;2023-07-20T09:20:16;23.90;99.90
75321;DHT22;68337;52.196;5.660;2023-07-20T09:22:43;24.80;99.90
75321;DHT22;68337;52.196;5.660;2023-07-20T09:25:14;25.70;99.90
75321;DHT22;68337;52.196;5.660;2023-07-20T09:27:42;25.80;99.90
75321;DHT22;68337;52.196;5.660;2023-07-20T09:30:08;25.50;98.70
75321;DHT22;68337;52.196;5.660;2023-07-20T09:35:15;25.00;98.30
75321;DHT22;68337;52.196;5.660;2023-07-20T09:37:57;25.60;98.50
75321;DHT22;68337;52.196;5.660;2023-07-20T09:40:27;26.60;97.30
75321;DHT22;68337;52.196;5.660;2023-07-20T09:42:54;26.00;97.40
75321;DHT22;68337;52.196;5.660;2023-07-20T09:45:31;25.40;97.60
75321;DHT22;68337;52.196;5.660;2023-07-20T09:48:09;25.30;99.40
75321;DHT22;68337;52.196;5.660;2023-07-20T09:50:43;24.60;98.80
75321;DHT22;68337;52.196;5.660;2023-07-20T09:53:14;23.70;99.90
75321;DHT22;68337;52.196;5.660;2023-07-20T09:55:41;23.40;99.00
75321;DHT22;68337;52.196;5.660;2023-07-20T09:58:11;23.40;99.90
75321;DHT22;68337;52.196;5.660;2023-07-20T10:00:38;24.40;99.40
75321;DHT22;68337;52.196;5.660;2023-07-20T10:03:06;24.60;97.30
75321;DHT22;68337;52.196;5.660;2023-07-20T10:05:33;25.10;97.20
75321;DHT22;68337;52.196;5.660;2023-07-20T10:08:02;25.70;97.80
75321;DHT22;68337;52.196;5.660;2023-07-20T10:10:33;25.80;98.40
75321;DHT22;68337;52.196;5.660;2023-07-20T10:13:01;25.60;98.20
75321;DHT22;68337;52.196;5.660;2023-07-20T10:15:37;24.80;99.10
75321;DHT22;68337;52.196;5.660;2023-07-20T10:18:24;24.00;99.90
75321;DHT22;68337;52.196;5.660;2023-07-20T10:20:55;24.10;99.80
75321;DHT22;68337;52.196;5.660;2023-07-20T10:23:22;24.50;98.80
75321;DHT22;68337;52.196;5.660;2023-07-20T10:25:52;24.90;97.60
75321;DHT22;68337;52.196;5.660;2023-07-20T10:28:19;25.20;95.30
75321;DHT22;68337;52.196;5.660;2023-07-20T10:30:46;25.80;93.70
75321;DHT22;68337;52.196;5.660;2023-07-20T10:33:12;26.40;92.20
75321;DHT22;68337;52.196;5.660;2023-07-20T10:36:00;27.30;90.90
75321;DHT22;68337;52.196;5.660;2023-07-20T10:38:39;27.80;90.50
75321;DHT22;68337;52.196;5.660;2023-07-20T10:41:16;27.10;92.90
75321;DHT22;68337;52.196;5.660;2023-07-20T10:43:44;26.80;93.00
75321;DHT22;68337;52.196;5.660;2023-07-20T10:46:14;27.00;93.00
75321;DHT22;68337;52.196;5.660;2023-07-20T10:48:59;26.00;93.20
75321;DHT22;68337;52.196;5.660;2023-07-20T10:51:25;25.70;93.60
75321;DHT22;68337;52.196;5.660;2023-07-20T10:53:51;25.60;93.30
75321;DHT22;68337;52.196;5.660;2023-07-20T10:56:23;26.30;92.70
75321;DHT22;68337;52.196;5.660;2023-07-20T10:58:57;26.40;90.50
75321;DHT22;68337;52.196;5.660;2023-07-20T11:01:28;26.20;91.20
75321;DHT22;68337;52.196;5.660;2023-07-20T11:03:57;26.10;91.70
75321;DHT22;68337;52.196;5.660;2023-07-20T11:09:15;25.50;92.80
75321;DHT22;68337;52.196;5.660;2023-07-20T11:11:47;26.10;92.00
75321;DHT22;68337;52.196;5.660;2023-07-20T11:14:26;25.70;89.50
75321;DHT22;68337;52.196;5.660;2023-07-20T11:16:53;25.70;90.40
75321;DHT22;68337;52.196;5.660;2023-07-20T11:19:23;27.10;91.20
75321;DHT22;68337;52.196;5.660;2023-07-20T11:21:58;27.40;89.20
75321;DHT22;68337;52.196;5.660;2023-07-20T11:24:24;28.20;88.60
75321;DHT22;68337;52.196;5.660;2023-07-20T11:26:52;28.40;85.00
75321;DHT22;68337;52.196;5.660;2023-07-20T11:29:20;28.50;83.20
75321;DHT22;68337;52.196;5.660;2023-07-20T11:31:47;28.40;80.00
75321;DHT22;68337;52.196;5.660;2023-07-20T11:34:17;27.20;85.90
75321;DHT22;68337;52.196;5.660;2023-07-20T11:36:48;26.10;89.20
75321;DHT22;68337;52.196;5.660;2023-07-20T11:39:18;25.70;90.30
75321;DHT22;68337;52.196;5.660;2023-07-20T11:41:55;25.20;90.20
75321;DHT22;68337;52.196;5.660;2023-07-20T11:44:23;25.70;91.90
75321;DHT22;68337;52.196;5.660;2023-07-20T11:47:09;26.80;90.50
75321;DHT22;68337;52.196;5.660;2023-07-20T11:49:37;27.30;87.70
75321;DHT22;68337;52.196;5.660;2023-07-20T11:52:07;27.30;85.00
75321;DHT22;68337;52.196;5.660;2023-07-20T11:54:34;27.30;85.20
75321;DHT22;68337;52.196;5.660;2023-07-20T11:57:03;26.80;83.30
75321;DHT22;68337;52.196;5.660;2023-07-20T11:59:31;26.00;83.80
75321;DHT22;68337;52.196;5.660;2023-07-20T12:01:58;25.70;86.00
75321;DHT22;68337;52.196;5.660;2023-07-20T12:04:24;25.60;85.60
75321;DHT22;68337;52.196;5.660;2023-07-20T12:06:50;25.50;85.70
75321;DHT22;68337;52.196;5.660;2023-07-20T12:09:18;25.00;87.30
75321;DHT22;68337;52.196;5.660;2023-07-20T12:11:44;25.10;88.80
75321;DHT22;68337;52.196;5.660;2023-07-20T12:14:11;25.20;88.80
75321;DHT22;68337;52.196;5.660;2023-07-20T12:16:37;24.70;89.00
75321;DHT22;68337;52.196;5.660;2023-07-20T12:19:09;24.70;88.60
75321;DHT22;68337;52.196;5.660;2023-07-20T12:21:36;25.20;88.80
75321;DHT22;68337;52.196;5.660;2023-07-20T12:24:03;26.20;87.10
75321;DHT22;68337;52.196;5.660;2023-07-20T12:26:30;26.70;86.00
75321;DHT22;68337;52.196;5.660;2023-07-20T12:28:56;27.50;85.90
75321;DHT22;68337;52.196;5.660;2023-07-20T12:31:22;27.30;83.80
75321;DHT22;68337;52.196;5.660;2023-07-20T12:33:50;27.70;84.70
75321;DHT22;68337;52.196;5.660;2023-07-20T12:36:16;28.20;84.00
75321;DHT22;68337;52.196;5.660;2023-07-20T12:38:42;28.30;84.80
75321;DHT22;68337;52.196;5.660;2023-07-20T12:41:10;27.50;84.60
75321;DHT22;68337;52.196;5.660;2023-07-20T12:43:38;27.80;85.70
75321;DHT22;68337;52.196;5.660;2023-07-20T12:46:04;28.60;83.20
75321;DHT22;68337;52.196;5.660;2023-07-20T12:48:30;28.50;82.10
75321;DHT22;68337;52.196;5.660;2023-07-20T12:50:56;27.70;80.70
75321;DHT22;68337;52.196;5.660;2023-07-20T12:53:21;27.50;81.80
75321;DHT22;68337;52.196;5.660;2023-07-20T12:55:47;28.20;80.00
75321;DHT22;68337;52.196;5.660;2023-07-20T12:58:13;28.80;76.20
75321;DHT22;68337;52.196;5.660;2023-07-20T13:00:39;29.00;78.10
75321;DHT22;68337;52.196;5.660;2023-07-20T13:03:06;28.90;78.10
75321;DHT22;68337;52.196;5.660;2023-07-20T13:05:34;28.50;75.60
75321;DHT22;68337;52.196;5.660;2023-07-20T13:08:01;27.90;75.20
75321;DHT22;68337;52.196;5.660;2023-07-20T13:10:31;28.10;74.80
75321;DHT22;68337;52.196;5.660;2023-07-20T13:12:56;28.50;73.80
75321;DHT22;68337;52.196;5.660;2023-07-20T13:15:28;29.10;73.30
75321;DHT22;68337;52.196;5.660;2023-07-20T13:17:56;29.20;72.90
75321;DHT22;68337;52.196;5.660;2023-07-20T13:20:22;28.80;72.70
75321;DHT22;68337;52.196;5.660;2023-07-20T13:22:47;28.10;73.30
75321;DHT22;68337;52.196;5.660;2023-07-20T13:25:14;28.00;73.50
75321;DHT22;68337;52.196;5.660;2023-07-20T13:27:39;27.70;73.10
75321;DHT22;68337;52.196;5.660;2023-07-20T13:30:06;27.50;76.30
75321;DHT22;68337;52.196;5.660;2023-07-20T13:32:33;27.20;74.60
75321;DHT22;68337;52.196;5.660;2023-07-20T13:34:59;27.20;76.90
75321;DHT22;68337;52.196;5.660;2023-07-20T13:37:25;26.60;76.50
75321;DHT22;68337;52.196;5.660;2023-07-20T13:39:52;26.70;78.60
75321;DHT22;68337;52.196;5.660;2023-07-20T13:42:18;26.70;76.40
75321;DHT22;68337;52.196;5.660;2023-07-20T13:44:43;26.90;78.60
75321;DHT22;68337;52.196;5.660;2023-07-20T13:47:09;27.30;75.20
75321;DHT22;68337;52.196;5.660;2023-07-20T13:49:35;27.70;75.20
75321;DHT22;68337;52.196;5.660;2023-07-20T13:52:01;27.80;74.80
75321;DHT22;68337;52.196;5.660;2023-07-20T13:54:26;27.40;75.10
75321;DHT22;68337;52.196;5.660;2023-07-20T13:56:52;27.50;73.90
75321;DHT22;68337;52.196;5.660;2023-07-20T13:59:18;27.60;72.30
75321;DHT22;68337;52.196;5.660;2023-07-20T14:01:44;27.30;74.00
75321;DHT22;68337;52.196;5.660;2023-07-20T14:04:10;27.10;75.40
75321;DHT22;68337;52.196;5.660;2023-07-20T14:06:36;27.20;74.50
75321;DHT22;68337;52.196;5.660;2023-07-20T14:09:02;27.20;73.90
75321;DHT22;68337;52.196;5.660;2023-07-20T14:11:29;27.10;73.00
75321;DHT22;68337;52.196;5.660;2023-07-20T14:13:54;26.50;72.70
75321;DHT22;68337;52.196;5.660;2023-07-20T14:16:21;26.20;76.20
75321;DHT22;68337;52.196;5.660;2023-07-20T14:18:46;25.90;78.60
75321;DHT22;68337;52.196;5.660;2023-07-20T14:21:14;25.60;78.50
75321;DHT22;68337;52.196;5.660;2023-07-20T14:23:40;25.40;79.60
75321;DHT22;68337;52.196;5.660;2023-07-20T14:26:06;25.30;78.40
75321;DHT22;68337;52.196;5.660;2023-07-20T14:28:33;25.30;79.60
75321;DHT22;68337;52.196;5.660;2023-07-20T14:30:58;25.30;79.70
75321;DHT22;68337;52.196;5.660;2023-07-20T14:33:24;25.50;79.00
75321;DHT22;68337;52.196;5.660;2023-07-20T14:35:50;25.60;80.10
75321;DHT22;68337;52.196;5.660;2023-07-20T14:38:16;26.20;81.20
75321;DHT22;68337;52.196;5.660;2023-07-20T14:40:42;25.90;76.60
75321;DHT22;68337;52.196;5.660;2023-07-20T14:43:08;25.90;78.10
75321;DHT22;68337;52.196;5.660;2023-07-20T14:45:33;26.80;79.90
75321;DHT22;68337;52.196;5.660;2023-07-20T14:47:59;27.40;76.30
75321;DHT22;68337;52.196;5.660;2023-07-20T14:50:25;27.20;74.50
75321;DHT22;68337;52.196;5.660;2023-07-20T14:52:51;26.40;75.00
75321;DHT22;68337;52.196;5.660;2023-07-20T14:55:16;26.00;78.10
75321;DHT22;68337;52.196;5.660;2023-07-20T14:57:43;25.70;79.50
75321;DHT22;68337;52.196;5.660;2023-07-20T15:00:09;25.20;78.90
75321;DHT22;68337;52.196;5.660;2023-07-20T15:02:37;25.10;80.20
75321;DHT22;68337;52.196;5.660;2023-07-20T15:05:06;24.90;79.80
75321;DHT22;68337;52.196;5.660;2023-07-20T15:07:32;24.80;82.30
75321;DHT22;68337;52.196;5.660;2023-07-20T15:09:59;24.90;80.60
75321;DHT22;68337;52.196;5.660;2023-07-20T15:12:24;24.90;82.10
75321;DHT22;68337;52.196;5.660;2023-07-20T15:15:11;24.80;82.60
75321;DHT22;68337;52.196;5.660;2023-07-20T15:17:38;24.70;83.60
75321;DHT22;68337;52.196;5.660;2023-07-20T15:20:05;24.70;82.80
75321;DHT22;68337;52.196;5.660;2023-07-20T15:22:35;24.90;81.90
75321;DHT22;68337;52.196;5.660;2023-07-20T15:25:06;25.20;84.20
75321;DHT22;68337;52.196;5.660;2023-07-20T15:27:33;25.20;80.90
75321;DHT22;68337;52.196;5.660;2023-07-20T15:29:59;25.80;81.00
75321;DHT22;68337;52.196;5.660;2023-07-20T15:32:24;25.90;80.20
75321;DHT22;68337;52.196;5.660;2023-07-20T15:34:50;26.20;80.30
75321;DHT22;68337;52.196;5.660;2023-07-20T15:37:16;25.90;82.30
75321;DHT22;68337;52.196;5.660;2023-07-20T15:39:42;25.30;82.30
75321;DHT22;68337;52.196;5.660;2023-07-20T15:42:08;25.20;84.50
75321;DHT22;68337;52.196;5.660;2023-07-20T15:44:34;24.70;86.40
75321;DHT22;68337;52.196;5.660;2023-07-20T15:47:00;24.90;85.90